sensor_id;sensor_type;location;lat;lon;timestamp;P1;durP1;ratioP1;P2;durP2;ratioP2
21084;SDS011;34247;50.064;19.970;2023-01-09T00:00:51;23.50;;;9.27;;
21084;SDS011;34247;50.064;19.970;2023-01-09T00:01:56;16.08;;;9.40;;
21084;SDS011;34247;50.064;19.970;2023-01-09T00:03:00;15.50;;;10.18;;
21084;SDS011;34247;50.064;19.970;2023-01-09T00:04:11;16.30;;;9.40;;
21084;SDS011;34247;50.064;19.970;2023-01-09T00:05:15;14.27;;;8.95;;
21084;SDS011;34247;50.064;19.970;2023-01-09T00:06:21;19.65;;;9.20;;
21084;SDS011;34247;50.064;19.970;2023-01-09T00:07:26;18.58;;;10.25;;
21084;SDS011;34247;50.064;19.970;2023-01-09T00:08:30;24.75;;;10.15;;
21084;SDS011;34247;50.064;19.970;2023-01-09T00:09:41;20.48;;;12.23;;
21084;SDS011;34247;50.064;19.970;2023-01-09T00:10:48;16.00;;;10.75;;
21084;SDS011;34247;50.064;19.970;2023-01-09T00:11:53;16.65;;;9.35;;
21084;SDS011;34247;50.064;19.970;2023-01-09T00:13:02;24.30;;;11.23;;
21084;SDS011;34247;50.064;19.970;2023-01-09T00:14:09;19.08;;;10.52;;
21084;SDS011;34247;50.064;19.970;2023-01-09T00:15:15;20.38;;;8.98;;
21084;SDS011;34247;50.064;19.970;2023-01-09T00:16:20;19.35;;;8.60;;
21084;SDS011;34247;50.064;19.970;2023-01-09T00:17:28;18.08;;;10.73;;
21084;SDS011;34247;50.064;19.970;2023-01-09T00:18:32;28.45;;;10.63;;
21084;SDS011;34247;50.064;19.970;2023-01-09T00:19:37;14.30;;;9.55;;
21084;SDS011;34247;50.064;19.970;2023-01-09T00:20:41;18.52;;;10.20;;
21084;SDS011;34247;50.064;19.970;2023-01-09T00:21:45;12.55;;;8.60;;
21084;SDS011;34247;50.064;19.970;2023-01-09T00:22:50;24.75;;;10.30;;
21084;SDS011;34247;50.064;19.970;2023-01-09T00:23:58;15.93;;;8.57;;
21084;SDS011;34247;50.064;19.970;2023-01-09T00:25:03;18.45;;;11.02;;
21084;SDS011;34247;50.064;19.970;2023-01-09T00:26:13;19.60;;;10.02;;
21084;SDS011;34247;50.064;19.970;2023-01-09T00:27:32;16.92;;;9.98;;
21084;SDS011;34247;50.064;19.970;2023-01-09T00:28:38;17.63;;;9.73;;
21084;SDS011;34247;50.064;19.970;2023-01-09T00:29:42;22.25;;;10.48;;
21084;SDS011;34247;50.064;19.970;2023-01-09T00:30:54;16.15;;;9.98;;
21084;SDS011;34247;50.064;19.970;2023-01-09T00:32:03;17.58;;;8.43;;
21084;SDS011;34247;50.064;19.970;2023-01-09T00:33:16;17.83;;;10.15;;
21084;SDS011;34247;50.064;19.970;2023-01-09T00:34:23;12.68;;;9.07;;
21084;SDS011;34247;50.064;19.970;2023-01-09T00:35:28;19.42;;;10.05;;
21084;SDS011;34247;50.064;19.970;2023-01-09T00:36:33;15.60;;;9.35;;
21084;SDS011;34247;50.064;19.970;2023-01-09T00:37:37;15.45;;;9.32;;
21084;SDS011;34247;50.064;19.970;2023-01-09T00:38:40;15.45;;;9.93;;
21084;SDS011;34247;50.064;19.970;2023-01-09T00:39:45;17.17;;;10.52;;
21084;SDS011;34247;50.064;19.970;2023-01-09T00:40:49;23.85;;;11.55;;
21084;SDS011;34247;50.064;19.970;2023-01-09T00:41:54;16.55;;;9.68;;
21084;SDS011;34247;50.064;19.970;2023-01-09T00:43:00;23.45;;;10.05;;
21084;SDS011;34247;50.064;19.970;2023-01-09T00:44:14;18.83;;;9.63;;
21084;SDS011;34247;50.064;19.970;2023-01-09T00:45:27;13.45;;;8.10;;
21084;SDS011;34247;50.064;19.970;2023-01-09T00:46:33;12.55;;;9.00;;
21084;SDS011;34247;50.064;19.970;2023-01-09T00:47:43;15.40;;;9.73;;
21084;SDS011;34247;50.064;19.970;2023-01-09T00:49:00;22.77;;;10.23;;
21084;SDS011;34247;50.064;19.970;2023-01-09T00:50:25;10.63;;;8.68;;
21084;SDS011;34247;50.064;19.970;2023-01-09T00:51:33;19.17;;;9.38;;
21084;SDS011;34247;50.064;19.970;2023-01-09T00:52:38;16.38;;;9.48;;
21084;SDS011;34247;50.064;19.970;2023-01-09T00:53:44;18.67;;;9.48;;
21084;SDS011;34247;50.064;19.970;2023-01-09T00:54:53;18.10;;;9.98;;
21084;SDS011;34247;50.064;19.970;2023-01-09T00:55:58;22.45;;;9.55;;
21084;SDS011;34247;50.064;19.970;2023-01-09T00:57:10;15.70;;;10.55;;
21084;SDS011;34247;50.064;19.970;2023-01-09T00:58:16;19.45;;;10.30;;
21084;SDS011;34247;50.064;19.970;2023-01-09T00:59:21;20.50;;;11.13;;
21084;SDS011;34247;50.064;19.970;2023-01-09T01:00:25;13.57;;;9.77;;
21084;SDS011;34247;50.064;19.970;2023-01-09T01:01:29;21.15;;;10.80;;
21084;SDS011;34247;50.064;19.970;2023-01-09T01:02:36;13.27;;;8.85;;
21084;SDS011;34247;50.064;19.970;2023-01-09T01:03:43;13.90;;;8.82;;
21084;SDS011;34247;50.064;19.970;2023-01-09T01:04:58;14.65;;;9.68;;
21084;SDS011;34247;50.064;19.970;2023-01-09T01:06:20;30.27;;;10.40;;
21084;SDS011;34247;50.064;19.970;2023-01-09T01:07:49;15.10;;;9.90;;
21084;SDS011;34247;50.064;19.970;2023-01-09T01:09:08;13.40;;;9.38;;
21084;SDS011;34247;50.064;19.970;2023-01-09T01:10:15;15.10;;;9.65;;
21084;SDS011;34247;50.064;19.970;2023-01-09T01:11:41;15.25;;;9.63;;
21084;SDS011;34247;50.064;19.970;2023-01-09T01:12:50;14.48;;;8.77;;
21084;SDS011;34247;50.064;19.970;2023-01-09T01:13:59;14.82;;;8.05;;
21084;SDS011;34247;50.064;19.970;2023-01-09T01:15:04;16.35;;;9.30;;
21084;SDS011;34247;50.064;19.970;2023-01-09T01:16:11;14.43;;;8.45;;
21084;SDS011;34247;50.064;19.970;2023-01-09T01:17:18;17.95;;;8.95;;
21084;SDS011;34247;50.064;19.970;2023-01-09T01:18:40;19.23;;;9.85;;
21084;SDS011;34247;50.064;19.970;2023-01-09T01:19:47;19.38;;;11.80;;
21084;SDS011;34247;50.064;19.970;2023-01-09T01:21:08;15.75;;;9.63;;
21084;SDS011;34247;50.064;19.970;2023-01-09T01:22:32;14.52;;;9.40;;
21084;SDS011;34247;50.064;19.970;2023-01-09T01:23:51;20.55;;;9.43;;
21084;SDS011;34247;50.064;19.970;2023-01-09T01:25:08;21.42;;;10.38;;
21084;SDS011;34247;50.064;19.970;2023-01-09T01:26:19;14.18;;;8.48;;
21084;SDS011;34247;50.064;19.970;2023-01-09T01:27:23;15.00;;;8.27;;
21084;SDS011;34247;50.064;19.970;2023-01-09T01:28:27;11.45;;;8.90;;
21084;SDS011;34247;50.064;19.970;2023-01-09T01:29:31;14.07;;;8.07;;
21084;SDS011;34247;50.064;19.970;2023-01-09T01:30:38;19.67;;;10.48;;
21084;SDS011;34247;50.064;19.970;2023-01-09T01:31:43;8.98;;;7.47;;
21084;SDS011;34247;50.064;19.970;2023-01-09T01:32:47;18.83;;;10.25;;
21084;SDS011;34247;50.064;19.970;2023-01-09T01:33:51;17.02;;;8.07;;
21084;SDS011;34247;50.064;19.970;2023-01-09T01:34:55;24.42;;;9.35;;
21084;SDS011;34247;50.064;19.970;2023-01-09T01:36:02;15.38;;;7.90;;
21084;SDS011;34247;50.064;19.970;2023-01-09T01:37:12;15.75;;;8.18;;
21084;SDS011;34247;50.064;19.970;2023-01-09T01:38:22;16.40;;;10.05;;
21084;SDS011;34247;50.064;19.970;2023-01-09T01:39:33;12.23;;;8.15;;
21084;SDS011;34247;50.064;19.970;2023-01-09T01:40:37;20.48;;;9.45;;
21084;SDS011;34247;50.064;19.970;2023-01-09T01:41:57;15.40;;;8.68;;
21084;SDS011;34247;50.064;19.970;2023-01-09T01:43:10;15.80;;;9.13;;
21084;SDS011;34247;50.064;19.970;2023-01-09T01:46:18;20.40;;;10.43;;
21084;SDS011;34247;50.064;19.970;2023-01-09T01:47:27;10.70;;;8.85;;
21084;SDS011;34247;50.064;19.970;2023-01-09T01:49:13;8.43;;;7.63;;
21084;SDS011;34247;50.064;19.970;2023-01-09T01:50:42;25.38;;;10.52;;
21084;SDS011;34247;50.064;19.970;2023-01-09T01:51:56;14.23;;;7.68;;
21084;SDS011;34247;50.064;19.970;2023-01-09T01:53:20;13.02;;;8.35;;
21084;SDS011;34247;50.064;19.970;2023-01-09T01:54:46;26.85;;;8.48;;
21084;SDS011;34247;50.064;19.970;2023-01-09T01:57:49;21.48;;;9.23;;
21084;SDS011;34247;50.064;19.970;2023-01-09T01:59:02;17.02;;;9.90;;
21084;SDS011;34247;50.064;19.970;2023-01-09T02:00:17;21.88;;;8.85;;
21084;SDS011;34247;50.064;19.970;2023-01-09T02:01:29;16.17;;;8.23;;
21084;SDS011;34247;50.064;19.970;2023-01-09T02:02:37;16.63;;;8.43;;
21084;SDS011;34247;50.064;19.970;2023-01-09T02:03:45;21.13;;;9.98;;
21084;SDS011;34247;50.064;19.970;2023-01-09T02:04:51;12.10;;;9.40;;
21084;SDS011;34247;50.064;19.970;2023-01-09T02:05:57;18.08;;;10.82;;
21084;SDS011;34247;50.064;19.970;2023-01-09T02:07:03;13.52;;;7.95;;
21084;SDS011;34247;50.064;19.970;2023-01-09T02:08:12;11.95;;;7.85;;
21084;SDS011;34247;50.064;19.970;2023-01-09T02:09:16;28.73;;;9.35;;
21084;SDS011;34247;50.064;19.970;2023-01-09T02:10:26;12.18;;;8.88;;
21084;SDS011;34247;50.064;19.970;2023-01-09T02:11:32;16.20;;;9.07;;
21084;SDS011;34247;50.064;19.970;2023-01-09T02:12:36;21.63;;;9.77;;
21084;SDS011;34247;50.064;19.970;2023-01-09T02:13:40;19.67;;;10.75;;
21084;SDS011;34247;50.064;19.970;2023-01-09T02:14:44;11.80;;;9.00;;
21084;SDS011;34247;50.064;19.970;2023-01-09T02:17:22;20.90;;;9.10;;
21084;SDS011;34247;50.064;19.970;2023-01-09T02:19:15;11.30;;;8.52;;
21084;SDS011;34247;50.064;19.970;2023-01-09T02:21:23;12.10;;;8.23;;
21084;SDS011;34247;50.064;19.970;2023-01-09T02:22:56;17.60;;;7.80;;
21084;SDS011;34247;50.064;19.970;2023-01-09T02:28:34;14.15;;;7.75;;
21084;SDS011;34247;50.064;19.970;2023-01-09T02:31:54;16.73;;;7.93;;
21084;SDS011;34247;50.064;19.970;2023-01-09T02:33:32;18.83;;;7.80;;
21084;SDS011;34247;50.064;19.970;2023-01-09T02:36:44;12.65;;;7.65;;
21084;SDS011;34247;50.064;19.970;2023-01-09T02:41:23;13.07;;;7.97;;
21084;SDS011;34247;50.064;19.970;2023-01-09T02:42:43;11.45;;;8.07;;
21084;SDS011;34247;50.064;19.970;2023-01-09T02:44:35;16.95;;;9.30;;
21084;SDS011;34247;50.064;19.970;2023-01-09T02:45:13;12.57;;;7.25;;
21084;SDS011;34247;50.064;19.970;2023-01-09T02:46:19;13.15;;;8.43;;
21084;SDS011;34247;50.064;19.970;2023-01-09T02:48:32;13.27;;;8.65;;
21084;SDS011;34247;50.064;19.970;2023-01-09T02:49:36;7.90;;;6.55;;
21084;SDS011;34247;50.064;19.970;2023-01-09T02:51:03;11.48;;;8.77;;
21084;SDS011;34247;50.064;19.970;2023-01-09T02:54:05;22.77;;;8.73;;
21084;SDS011;34247;50.064;19.970;2023-01-09T02:56:05;17.10;;;9.10;;
21084;SDS011;34247;50.064;19.970;2023-01-09T02:57:41;11.02;;;7.40;;
21084;SDS011;34247;50.064;19.970;2023-01-09T02:59:31;12.48;;;8.25;;
21084;SDS011;34247;50.064;19.970;2023-01-09T03:01:27;21.80;;;8.02;;
21084;SDS011;34247;50.064;19.970;2023-01-09T03:02:58;13.80;;;6.32;;
21084;SDS011;34247;50.064;19.970;2023-01-09T03:04:35;8.95;;;6.68;;
21084;SDS011;34247;50.064;19.970;2023-01-09T03:06:36;11.48;;;8.50;;
21084;SDS011;34247;50.064;19.970;2023-01-09T03:07:44;12.85;;;7.57;;
21084;SDS011;34247;50.064;19.970;2023-01-09T03:09:06;13.98;;;7.78;;
21084;SDS011;34247;50.064;19.970;2023-01-09T03:13:18;13.70;;;6.95;;
21084;SDS011;34247;50.064;19.970;2023-01-09T03:14:26;8.75;;;6.55;;
21084;SDS011;34247;50.064;19.970;2023-01-09T03:15:36;10.90;;;6.30;;
21084;SDS011;34247;50.064;19.970;2023-01-09T03:16:47;9.07;;;6.78;;
21084;SDS011;34247;50.064;19.970;2023-01-09T03:18:02;12.05;;;6.82;;
21084;SDS011;34247;50.064;19.970;2023-01-09T03:19:12;14.68;;;8.40;;
21084;SDS011;34247;50.064;19.970;2023-01-09T03:20:23;11.60;;;6.95;;
21084;SDS011;34247;50.064;19.970;2023-01-09T03:21:31;9.18;;;7.60;;
21084;SDS011;34247;50.064;19.970;2023-01-09T03:22:38;13.07;;;7.10;;
21084;SDS011;34247;50.064;19.970;2023-01-09T03:24:59;10.05;;;7.28;;
21084;SDS011;34247;50.064;19.970;2023-01-09T03:26:02;8.32;;;5.72;;
21084;SDS011;34247;50.064;19.970;2023-01-09T03:27:07;13.93;;;7.25;;
21084;SDS011;34247;50.064;19.970;2023-01-09T03:28:17;10.85;;;7.25;;
21084;SDS011;34247;50.064;19.970;2023-01-09T03:29:31;15.45;;;7.28;;
21084;SDS011;34247;50.064;19.970;2023-01-09T03:30:35;15.18;;;7.20;;
21084;SDS011;34247;50.064;19.970;2023-01-09T03:31:39;17.00;;;8.18;;
21084;SDS011;34247;50.064;19.970;2023-01-09T03:32:43;13.27;;;7.22;;
21084;SDS011;34247;50.064;19.970;2023-01-09T03:33:47;15.18;;;7.88;;
21084;SDS011;34247;50.064;19.970;2023-01-09T03:34:51;14.93;;;6.38;;
21084;SDS011;34247;50.064;19.970;2023-01-09T03:35:55;13.63;;;8.23;;
21084;SDS011;34247;50.064;19.970;2023-01-09T03:36:59;11.93;;;8.82;;
21084;SDS011;34247;50.064;19.970;2023-01-09T03:38:03;10.52;;;6.00;;
21084;SDS011;34247;50.064;19.970;2023-01-09T03:39:09;9.15;;;6.75;;
21084;SDS011;34247;50.064;19.970;2023-01-09T03:40:14;10.15;;;5.90;;
21084;SDS011;34247;50.064;19.970;2023-01-09T03:41:18;9.10;;;6.35;;
21084;SDS011;34247;50.064;19.970;2023-01-09T03:42:22;10.85;;;6.75;;
21084;SDS011;34247;50.064;19.970;2023-01-09T03:43:27;7.15;;;6.55;;
21084;SDS011;34247;50.064;19.970;2023-01-09T03:44:32;8.20;;;6.93;;
21084;SDS011;34247;50.064;19.970;2023-01-09T03:45:37;12.88;;;6.65;;
21084;SDS011;34247;50.064;19.970;2023-01-09T03:46:42;17.05;;;8.07;;
21084;SDS011;34247;50.064;19.970;2023-01-09T03:47:46;11.40;;;6.90;;
21084;SDS011;34247;50.064;19.970;2023-01-09T03:48:54;13.45;;;7.60;;
21084;SDS011;34247;50.064;19.970;2023-01-09T03:49:58;8.20;;;6.90;;
21084;SDS011;34247;50.064;19.970;2023-01-09T03:51:02;9.45;;;6.15;;
21084;SDS011;34247;50.064;19.970;2023-01-09T03:52:08;10.23;;;5.88;;
21084;SDS011;34247;50.064;19.970;2023-01-09T03:53:13;11.85;;;6.43;;
21084;SDS011;34247;50.064;19.970;2023-01-09T03:54:17;10.63;;;6.97;;
21084;SDS011;34247;50.064;19.970;2023-01-09T03:55:21;8.65;;;6.70;;
21084;SDS011;34247;50.064;19.970;2023-01-09T03:56:25;11.95;;;7.78;;
21084;SDS011;34247;50.064;19.970;2023-01-09T03:57:29;14.30;;;6.57;;
21084;SDS011;34247;50.064;19.970;2023-01-09T03:58:33;12.90;;;7.95;;
21084;SDS011;34247;50.064;19.970;2023-01-09T03:59:37;14.63;;;7.70;;
21084;SDS011;34247;50.064;19.970;2023-01-09T04:00:41;13.00;;;8.70;;
21084;SDS011;34247;50.064;19.970;2023-01-09T04:01:48;11.82;;;7.65;;
21084;SDS011;34247;50.064;19.970;2023-01-09T04:02:52;16.63;;;8.40;;
21084;SDS011;34247;50.064;19.970;2023-01-09T04:03:56;12.77;;;7.82;;
21084;SDS011;34247;50.064;19.970;2023-01-09T04:05:00;14.82;;;7.88;;
21084;SDS011;34247;50.064;19.970;2023-01-09T04:06:07;13.25;;;7.57;;
21084;SDS011;34247;50.064;19.970;2023-01-09T04:07:11;10.88;;;6.60;;
21084;SDS011;34247;50.064;19.970;2023-01-09T04:08:16;13.70;;;8.23;;
21084;SDS011;34247;50.064;19.970;2023-01-09T04:09:21;18.77;;;7.97;;
21084;SDS011;34247;50.064;19.970;2023-01-09T04:10:25;10.80;;;7.53;;
21084;SDS011;34247;50.064;19.970;2023-01-09T04:11:29;10.57;;;7.00;;
21084;SDS011;34247;50.064;19.970;2023-01-09T04:12:33;14.82;;;7.78;;
21084;SDS011;34247;50.064;19.970;2023-01-09T04:13:37;11.60;;;7.30;;
21084;SDS011;34247;50.064;19.970;2023-01-09T04:14:41;14.70;;;6.07;;
21084;SDS011;34247;50.064;19.970;2023-01-09T04:15:45;11.45;;;9.10;;
21084;SDS011;34247;50.064;19.970;2023-01-09T04:16:49;8.75;;;6.50;;
21084;SDS011;34247;50.064;19.970;2023-01-09T04:17:53;7.35;;;6.60;;
21084;SDS011;34247;50.064;19.970;2023-01-09T04:18:57;11.95;;;7.65;;
21084;SDS011;34247;50.064;19.970;2023-01-09T04:20:01;14.85;;;8.27;;
21084;SDS011;34247;50.064;19.970;2023-01-09T04:21:09;13.65;;;8.95;;
21084;SDS011;34247;50.064;19.970;2023-01-09T04:22:13;11.38;;;7.28;;
21084;SDS011;34247;50.064;19.970;2023-01-09T04:23:18;16.85;;;7.50;;
21084;SDS011;34247;50.064;19.970;2023-01-09T04:24:23;9.05;;;7.15;;
21084;SDS011;34247;50.064;19.970;2023-01-09T04:25:27;9.18;;;6.35;;
21084;SDS011;34247;50.064;19.970;2023-01-09T04:26:31;7.05;;;6.45;;
21084;SDS011;34247;50.064;19.970;2023-01-09T04:27:35;11.75;;;7.78;;
21084;SDS011;34247;50.064;19.970;2023-01-09T04:28:39;11.68;;;6.85;;
21084;SDS011;34247;50.064;19.970;2023-01-09T04:29:44;19.17;;;7.43;;
21084;SDS011;34247;50.064;19.970;2023-01-09T04:30:48;7.57;;;6.38;;
21084;SDS011;34247;50.064;19.970;2023-01-09T04:31:52;12.65;;;7.93;;
21084;SDS011;34247;50.064;19.970;2023-01-09T04:32:57;12.88;;;7.63;;
21084;SDS011;34247;50.064;19.970;2023-01-09T04:34:01;8.85;;;7.78;;
21084;SDS011;34247;50.064;19.970;2023-01-09T04:35:09;11.38;;;7.15;;
21084;SDS011;34247;50.064;19.970;2023-01-09T04:36:13;8.98;;;7.68;;
21084;SDS011;34247;50.064;19.970;2023-01-09T04:37:17;15.30;;;7.78;;
21084;SDS011;34247;50.064;19.970;2023-01-09T04:38:22;8.27;;;6.50;;
21084;SDS011;34247;50.064;19.970;2023-01-09T04:39:26;9.02;;;7.13;;
21084;SDS011;34247;50.064;19.970;2023-01-09T04:40:30;9.85;;;6.78;;
21084;SDS011;34247;50.064;19.970;2023-01-09T04:41:34;7.80;;;6.40;;
21084;SDS011;34247;50.064;19.970;2023-01-09T04:42:53;14.23;;;7.57;;
21084;SDS011;34247;50.064;19.970;2023-01-09T04:43:57;9.57;;;6.78;;
21084;SDS011;34247;50.064;19.970;2023-01-09T04:45:01;8.77;;;7.03;;
21084;SDS011;34247;50.064;19.970;2023-01-09T04:46:07;13.20;;;8.57;;
21084;SDS011;34247;50.064;19.970;2023-01-09T04:47:11;13.85;;;9.45;;
21084;SDS011;34247;50.064;19.970;2023-01-09T04:48:15;7.55;;;6.93;;
21084;SDS011;34247;50.064;19.970;2023-01-09T04:49:20;12.68;;;8.18;;
21084;SDS011;34247;50.064;19.970;2023-01-09T04:50:25;15.02;;;6.88;;
21084;SDS011;34247;50.064;19.970;2023-01-09T04:51:29;8.20;;;6.70;;
21084;SDS011;34247;50.064;19.970;2023-01-09T04:52:33;12.95;;;7.15;;
21084;SDS011;34247;50.064;19.970;2023-01-09T04:53:39;8.38;;;6.70;;
21084;SDS011;34247;50.064;19.970;2023-01-09T04:54:43;14.60;;;8.60;;
21084;SDS011;34247;50.064;19.970;2023-01-09T04:55:47;9.55;;;7.97;;
21084;SDS011;34247;50.064;19.970;2023-01-09T04:56:52;16.40;;;8.77;;
21084;SDS011;34247;50.064;19.970;2023-01-09T04:57:59;9.05;;;7.20;;
21084;SDS011;34247;50.064;19.970;2023-01-09T04:59:03;15.88;;;9.55;;
21084;SDS011;34247;50.064;19.970;2023-01-09T05:00:09;10.18;;;8.52;;
21084;SDS011;34247;50.064;19.970;2023-01-09T05:01:14;12.07;;;7.93;;
21084;SDS011;34247;50.064;19.970;2023-01-09T05:02:18;10.73;;;7.18;;
21084;SDS011;34247;50.064;19.970;2023-01-09T05:03:22;8.90;;;7.63;;
21084;SDS011;34247;50.064;19.970;2023-01-09T05:04:25;13.18;;;8.10;;
21084;SDS011;34247;50.064;19.970;2023-01-09T05:05:29;19.17;;;7.13;;
21084;SDS011;34247;50.064;19.970;2023-01-09T05:06:33;11.32;;;7.63;;
21084;SDS011;34247;50.064;19.970;2023-01-09T05:07:38;13.32;;;8.43;;
21084;SDS011;34247;50.064;19.970;2023-01-09T05:08:42;9.77;;;6.45;;
21084;SDS011;34247;50.064;19.970;2023-01-09T05:09:46;18.08;;;7.72;;
21084;SDS011;34247;50.064;19.970;2023-01-09T05:10:50;7.43;;;6.75;;
21084;SDS011;34247;50.064;19.970;2023-01-09T05:11:54;9.40;;;6.65;;
21084;SDS011;34247;50.064;19.970;2023-01-09T05:12:58;12.95;;;7.78;;
21084;SDS011;34247;50.064;19.970;2023-01-09T05:14:02;14.02;;;8.20;;
21084;SDS011;34247;50.064;19.970;2023-01-09T05:15:06;18.00;;;8.43;;
21084;SDS011;34247;50.064;19.970;2023-01-09T05:16:11;15.82;;;8.32;;
21084;SDS011;34247;50.064;19.970;2023-01-09T05:17:15;16.95;;;7.68;;
21084;SDS011;34247;50.064;19.970;2023-01-09T05:18:19;14.95;;;7.90;;
21084;SDS011;34247;50.064;19.970;2023-01-09T05:19:23;11.68;;;8.45;;
21084;SDS011;34247;50.064;19.970;2023-01-09T05:20:27;14.95;;;7.63;;
21084;SDS011;34247;50.064;19.970;2023-01-09T05:21:31;13.00;;;7.22;;
21084;SDS011;34247;50.064;19.970;2023-01-09T05:22:36;13.18;;;5.82;;
21084;SDS011;34247;50.064;19.970;2023-01-09T05:23:40;12.77;;;7.10;;
21084;SDS011;34247;50.064;19.970;2023-01-09T05:24:44;14.27;;;8.13;;
21084;SDS011;34247;50.064;19.970;2023-01-09T05:25:47;6.60;;;5.55;;
21084;SDS011;34247;50.064;19.970;2023-01-09T05:26:51;9.32;;;7.38;;
21084;SDS011;34247;50.064;19.970;2023-01-09T05:27:55;12.32;;;8.30;;
21084;SDS011;34247;50.064;19.970;2023-01-09T05:28:59;12.50;;;8.98;;
21084;SDS011;34247;50.064;19.970;2023-01-09T05:30:04;13.50;;;7.63;;
21084;SDS011;34247;50.064;19.970;2023-01-09T05:31:08;13.88;;;9.02;;
21084;SDS011;34247;50.064;19.970;2023-01-09T05:32:13;13.40;;;8.40;;
21084;SDS011;34247;50.064;19.970;2023-01-09T05:33:17;9.43;;;6.22;;
21084;SDS011;34247;50.064;19.970;2023-01-09T05:34:22;11.63;;;7.90;;
21084;SDS011;34247;50.064;19.970;2023-01-09T05:35:27;8.80;;;6.95;;
21084;SDS011;34247;50.064;19.970;2023-01-09T05:36:31;10.75;;;7.85;;
21084;SDS011;34247;50.064;19.970;2023-01-09T05:37:35;16.50;;;8.82;;
21084;SDS011;34247;50.064;19.970;2023-01-09T05:38:39;12.95;;;7.90;;
21084;SDS011;34247;50.064;19.970;2023-01-09T05:39:43;13.75;;;8.88;;
21084;SDS011;34247;50.064;19.970;2023-01-09T05:40:47;11.13;;;7.10;;
21084;SDS011;34247;50.064;19.970;2023-01-09T05:41:51;13.57;;;7.55;;
21084;SDS011;34247;50.064;19.970;2023-01-09T05:42:55;22.40;;;8.70;;
21084;SDS011;34247;50.064;19.970;2023-01-09T05:44:00;10.70;;;7.13;;
21084;SDS011;34247;50.064;19.970;2023-01-09T05:45:05;16.38;;;7.10;;
21084;SDS011;34247;50.064;19.970;2023-01-09T05:46:11;10.57;;;6.72;;
21084;SDS011;34247;50.064;19.970;2023-01-09T05:47:16;11.23;;;7.93;;
21084;SDS011;34247;50.064;19.970;2023-01-09T05:48:20;13.93;;;6.90;;
21084;SDS011;34247;50.064;19.970;2023-01-09T05:49:24;13.68;;;7.07;;
21084;SDS011;34247;50.064;19.970;2023-01-09T05:50:27;12.43;;;7.32;;
21084;SDS011;34247;50.064;19.970;2023-01-09T05:51:32;9.88;;;6.78;;
21084;SDS011;34247;50.064;19.970;2023-01-09T05:52:36;14.05;;;7.13;;
21084;SDS011;34247;50.064;19.970;2023-01-09T05:53:40;12.57;;;7.97;;
21084;SDS011;34247;50.064;19.970;2023-01-09T05:54:44;11.80;;;8.45;;
21084;SDS011;34247;50.064;19.970;2023-01-09T05:55:48;15.10;;;8.07;;
21084;SDS011;34247;50.064;19.970;2023-01-09T05:56:52;8.27;;;6.85;;
21084;SDS011;34247;50.064;19.970;2023-01-09T05:57:56;10.32;;;7.18;;
21084;SDS011;34247;50.064;19.970;2023-01-09T05:59:00;24.30;;;8.57;;
21084;SDS011;34247;50.064;19.970;2023-01-09T06:00:04;9.13;;;6.47;;
21084;SDS011;34247;50.064;19.970;2023-01-09T06:01:08;6.03;;;5.50;;
21084;SDS011;34247;50.064;19.970;2023-01-09T06:02:12;16.27;;;7.10;;
21084;SDS011;34247;50.064;19.970;2023-01-09T06:03:16;15.25;;;8.10;;
21084;SDS011;34247;50.064;19.970;2023-01-09T06:04:21;11.93;;;7.22;;
21084;SDS011;34247;50.064;19.970;2023-01-09T06:05:24;13.77;;;7.25;;
21084;SDS011;34247;50.064;19.970;2023-01-09T06:06:28;7.93;;;6.70;;
21084;SDS011;34247;50.064;19.970;2023-01-09T06:07:32;11.18;;;7.63;;
21084;SDS011;34247;50.064;19.970;2023-01-09T06:08:41;12.30;;;6.68;;
21084;SDS011;34247;50.064;19.970;2023-01-09T06:09:44;15.98;;;8.30;;
21084;SDS011;34247;50.064;19.970;2023-01-09T06:10:49;14.00;;;7.57;;
21084;SDS011;34247;50.064;19.970;2023-01-09T06:11:53;19.65;;;8.57;;
21084;SDS011;34247;50.064;19.970;2023-01-09T06:12:57;11.50;;;7.28;;
21084;SDS011;34247;50.064;19.970;2023-01-09T06:14:04;12.68;;;9.40;;
21084;SDS011;34247;50.064;19.970;2023-01-09T06:15:08;14.07;;;7.05;;
21084;SDS011;34247;50.064;19.970;2023-01-09T06:16:12;9.98;;;7.53;;
21084;SDS011;34247;50.064;19.970;2023-01-09T06:17:17;11.38;;;7.63;;
21084;SDS011;34247;50.064;19.970;2023-01-09T06:18:20;10.05;;;6.78;;
21084;SDS011;34247;50.064;19.970;2023-01-09T06:19:24;12.20;;;7.90;;
21084;SDS011;34247;50.064;19.970;2023-01-09T06:20:28;10.32;;;7.15;;
21084;SDS011;34247;50.064;19.970;2023-01-09T06:21:33;17.90;;;9.65;;
21084;SDS011;34247;50.064;19.970;2023-01-09T06:22:37;11.38;;;7.15;;
21084;SDS011;34247;50.064;19.970;2023-01-09T06:23:41;14.82;;;7.78;;
21084;SDS011;34247;50.064;19.970;2023-01-09T06:24:45;11.73;;;7.00;;
21084;SDS011;34247;50.064;19.970;2023-01-09T06:25:49;7.10;;;6.35;;
21084;SDS011;34247;50.064;19.970;2023-01-09T06:26:52;11.23;;;7.45;;
21084;SDS011;34247;50.064;19.970;2023-01-09T06:27:56;10.65;;;7.70;;
21084;SDS011;34247;50.064;19.970;2023-01-09T06:29:00;11.68;;;7.18;;
21084;SDS011;34247;50.064;19.970;2023-01-09T06:30:04;16.85;;;8.57;;
21084;SDS011;34247;50.064;19.970;2023-01-09T06:31:09;11.25;;;5.85;;
21084;SDS011;34247;50.064;19.970;2023-01-09T06:32:13;15.48;;;8.60;;
21084;SDS011;34247;50.064;19.970;2023-01-09T06:33:27;10.32;;;7.88;;
21084;SDS011;34247;50.064;19.970;2023-01-09T06:34:31;15.82;;;7.50;;
21084;SDS011;34247;50.064;19.970;2023-01-09T06:35:35;14.75;;;6.72;;
21084;SDS011;34247;50.064;19.970;2023-01-09T06:36:38;8.88;;;6.32;;
21084;SDS011;34247;50.064;19.970;2023-01-09T06:37:42;11.90;;;8.32;;
21084;SDS011;34247;50.064;19.970;2023-01-09T06:38:46;15.60;;;7.50;;
21084;SDS011;34247;50.064;19.970;2023-01-09T06:39:51;10.63;;;7.43;;
21084;SDS011;34247;50.064;19.970;2023-01-09T06:40:56;7.78;;;6.32;;
21084;SDS011;34247;50.064;19.970;2023-01-09T06:41:59;8.02;;;5.95;;
21084;SDS011;34247;50.064;19.970;2023-01-09T06:43:03;9.98;;;5.97;;
21084;SDS011;34247;50.064;19.970;2023-01-09T06:44:07;13.48;;;6.70;;
21084;SDS011;34247;50.064;19.970;2023-01-09T06:45:11;9.38;;;6.93;;
21084;SDS011;34247;50.064;19.970;2023-01-09T06:46:16;11.48;;;6.65;;
21084;SDS011;34247;50.064;19.970;2023-01-09T06:47:20;12.10;;;6.97;;
21084;SDS011;34247;50.064;19.970;2023-01-09T06:48:24;10.05;;;7.10;;
21084;SDS011;34247;50.064;19.970;2023-01-09T06:49:28;11.52;;;7.10;;
21084;SDS011;34247;50.064;19.970;2023-01-09T06:50:32;13.63;;;6.05;;
21084;SDS011;34247;50.064;19.970;2023-01-09T06:51:36;11.65;;;6.53;;
21084;SDS011;34247;50.064;19.970;2023-01-09T06:52:40;14.55;;;7.15;;
21084;SDS011;34247;50.064;19.970;2023-01-09T06:53:46;10.70;;;6.18;;
21084;SDS011;34247;50.064;19.970;2023-01-09T06:54:50;13.15;;;6.65;;
21084;SDS011;34247;50.064;19.970;2023-01-09T06:55:58;7.55;;;5.45;;
21084;SDS011;34247;50.064;19.970;2023-01-09T06:57:05;8.60;;;5.35;;
21084;SDS011;34247;50.064;19.970;2023-01-09T06:58:10;8.50;;;6.72;;
21084;SDS011;34247;50.064;19.970;2023-01-09T06:59:14;10.88;;;6.75;;
21084;SDS011;34247;50.064;19.970;2023-01-09T07:00:19;7.85;;;5.82;;
21084;SDS011;34247;50.064;19.970;2023-01-09T07:01:24;8.82;;;7.20;;
21084;SDS011;34247;50.064;19.970;2023-01-09T07:02:31;6.53;;;5.53;;
21084;SDS011;34247;50.064;19.970;2023-01-09T07:03:36;12.77;;;6.30;;